createdAt,value
2022-07-27T00:00:05.494Z,28.03
2022-07-27T00:05:10.708Z,27.98
2022-07-27T00:10:09.340Z,27.51
2022-07-27T00:15:08.409Z,27.49
2022-07-27T00:20:09.635Z,27.81
2022-07-27T00:25:10.858Z,27.69
2022-07-27T00:30:09.762Z,27.22
2022-07-27T00:35:20.139Z,26.88
2022-07-27T00:40:20.257Z,27.14
2022-07-27T00:45:19.179Z,27.39
2022-07-27T00:50:17.640Z,27.31
2022-07-27T00:55:16.335Z,27.14
2022-07-27T01:00:18.168Z,27.37
2022-07-27T01:05:20.609Z,27.02
2022-07-27T01:10:19.564Z,27.02
2022-07-27T01:15:21.364Z,26.87
2022-07-27T01:20:24.000Z,26.53
2022-07-27T01:25:23.480Z,26.59
2022-07-27T01:30:30.833Z,26.55
2022-07-27T01:35:32.387Z,26.31
2022-07-27T01:40:31.714Z,26.35
2022-07-27T01:45:33.210Z,26.56
2022-07-27T01:50:32.582Z,26.25
2022-07-27T01:55:38.698Z,26.34
2022-07-27T02:00:38.803Z,26.13
2022-07-27T02:05:38.485Z,25.86
2022-07-27T02:10:37.075Z,25.93
2022-07-27T02:15:43.253Z,26.00
2022-07-27T02:20:44.428Z,25.58
2022-07-27T02:25:43.740Z,25.38
2022-07-27T02:30:42.302Z,25.29
2022-07-27T02:35:43.907Z,25.20
2022-07-27T02:40:45.527Z,25.34
2022-07-27T02:45:46.484Z,25.55
2022-07-27T02:50:45.369Z,25.64
2022-07-27T02:55:46.329Z,25.26
2022-07-27T03:00:44.190Z,24.94
2022-07-27T03:05:43.420Z,24.90
2022-07-27T03:10:42.074Z,24.92
2022-07-27T03:15:47.560Z,24.99
2022-07-27T03:20:49.161Z,25.05
2022-07-27T03:25:47.302Z,24.92
2022-07-27T03:30:46.697Z,24.84
2022-07-27T03:35:45.231Z,24.80
2022-07-27T03:40:45.429Z,24.70
2022-07-27T03:45:47.252Z,24.85
2022-07-27T03:50:49.268Z,25.19
2022-07-27T03:55:48.841Z,25.56
2022-07-27T04:00:48.993Z,25.39
2022-07-27T04:05:50.077Z,25.73
2022-07-27T04:10:48.282Z,25.38
2022-07-27T04:15:46.419Z,25.36
2022-07-27T04:20:45.504Z,25.52
2022-07-27T04:25:44.207Z,25.15
2022-07-27T04:31:04.366Z,25.20
2022-07-27T04:36:03.400Z,25.61
2022-07-27T04:41:05.706Z,25.97
2022-07-27T04:46:05.661Z,26.20
2022-07-27T04:51:07.601Z,26.19
2022-07-27T04:56:07.134Z,26.47
2022-07-27T05:01:07.302Z,26.58
2022-07-27T05:06:06.893Z,26.80
2022-07-27T05:11:05.367Z,26.92
2022-07-27T05:16:07.384Z,26.95
2022-07-27T05:21:07.789Z,26.92
2022-07-27T05:26:09.269Z,27.21
2022-07-27T05:31:08.431Z,26.96
2022-07-27T05:36:07.826Z,27.01
2022-07-27T05:41:07.650Z,27.04
2022-07-27T05:46:05.908Z,26.93
2022-07-27T05:51:07.289Z,27.35
2022-07-27T05:56:08.453Z,27.38
2022-07-27T06:01:06.106Z,27.38
2022-07-27T06:06:24.418Z,27.31
2022-07-27T06:11:22.925Z,27.44
2022-07-27T06:16:24.333Z,27.63
2022-07-27T06:21:28.208Z,27.91
2022-07-27T06:26:26.669Z,28.13
2022-07-27T06:31:26.849Z,28.05
2022-07-27T06:36:26.639Z,28.35
2022-07-27T06:41:24.783Z,28.29
2022-07-27T06:46:23.206Z,28.55
2022-07-27T06:51:24.284Z,28.69
2022-07-27T06:56:23.354Z,28.60
2022-07-27T07:01:34.683Z,28.82
2022-07-27T07:06:36.792Z,28.76
2022-07-27T07:11:37.406Z,29.08
2022-07-27T07:16:38.925Z,28.97
2022-07-27T07:21:40.748Z,29.16
2022-07-27T07:26:41.263Z,29.28
2022-07-27T07:31:40.935Z,29.31
2022-07-27T07:36:43.320Z,29.45
2022-07-27T07:41:42.089Z,29.75
2022-07-27T07:46:47.074Z,29.88
2022-07-27T07:51:46.656Z,29.98
2022-07-27T07:56:45.441Z,30.24
2022-07-27T08:01:46.663Z,30.32
2022-07-27T08:06:46.080Z,30.66
2022-07-27T08:11:45.783Z,30.78
2022-07-27T08:16:45.557Z,30.68
2022-07-27T08:21:46.632Z,30.98
2022-07-27T08:26:45.694Z,31.04
2022-07-27T08:31:51.971Z,31.14
2022-07-27T08:36:53.143Z,31.34
2022-07-27T08:41:53.890Z,31.57
2022-07-27T08:46:52.415Z,31.79
2022-07-27T08:51:52.905Z,31.92
2022-07-27T08:56:53.813Z,32.15
2022-07-27T09:01:55.528Z,32.09
2022-07-27T09:06:57.029Z,32.52
2022-07-27T09:12:11.470Z,32.47
2022-07-27T09:17:47.948Z,32.61
2022-07-27T09:23:09.840Z,32.82
2022-07-27T09:28:08.740Z,32.86
2022-07-27T09:33:09.001Z,33.00
2022-07-27T09:38:22.531Z,33.12
2022-07-27T09:44:27.575Z,33.29
2022-07-27T09:48:46.261Z,33.35
2022-07-27T09:53:44.680Z,33.59
2022-07-27T09:58:51.552Z,33.62
2022-07-27T10:03:57.124Z,33.86
2022-07-27T10:08:58.614Z,33.86
2022-07-27T10:13:59.539Z,34.18
2022-07-27T10:19:08.581Z,34.51
2022-07-27T10:24:12.617Z,34.46
2022-07-27T10:29:17.262Z,34.96
2022-07-27T10:34:38.218Z,35.07
2022-07-27T10:39:43.290Z,35.34
2022-07-27T10:44:57.019Z,35.40
2022-07-27T10:50:22.530Z,35.65
2022-07-27T10:55:49.394Z,35.98
2022-07-27T11:00:56.735Z,36.08
2022-07-27T11:06:04.681Z,36.01
2022-07-27T11:11:21.157Z,36.27
2022-07-27T11:16:24.518Z,36.01
2022-07-27T11:21:33.181Z,36.36
2022-07-27T11:26:37.346Z,36.48
2022-07-27T11:31:58.147Z,36.85
2022-07-27T11:37:03.232Z,36.83
2022-07-27T11:42:08.420Z,37.06
2022-07-27T11:47:17.730Z,37.25
2022-07-27T11:52:18.899Z,37.62
2022-07-27T11:57:24.138Z,37.80
2022-07-27T12:02:27.445Z,37.98
2022-07-27T12:07:35.848Z,38.01
2022-07-27T12:12:38.451Z,38.21
2022-07-27T12:17:38.813Z,38.65
2022-07-27T12:22:42.075Z,37.96
2022-07-27T12:27:41.506Z,38.63
2022-07-27T12:32:44.619Z,38.75
2022-07-27T12:37:43.822Z,39.25
2022-07-27T12:42:42.318Z,39.50
2022-07-27T12:47:44.196Z,39.49
2022-07-27T12:52:51.603Z,39.74
2022-07-27T12:57:56.534Z,39.74
2022-07-27T13:03:05.080Z,41.23
2022-07-27T13:08:07.775Z,41.61
2022-07-27T13:13:08.436Z,42.82
2022-07-27T13:18:10.528Z,43.36
2022-07-27T13:23:13.641Z,44.32
2022-07-27T13:28:12.944Z,44.52
2022-07-27T13:33:14.495Z,44.53
2022-07-27T13:38:17.248Z,44.50
2022-07-27T13:43:19.709Z,44.83
2022-07-27T13:48:18.272Z,44.71
2022-07-27T13:53:20.511Z,45.59
2022-07-27T13:58:20.059Z,45.62
2022-07-27T14:03:24.256Z,46.02
2022-07-27T14:08:26.041Z,45.87
2022-07-27T14:13:26.601Z,45.47
2022-07-27T14:18:27.699Z,45.53
2022-07-27T14:23:27.283Z,46.25
2022-07-27T14:28:27.426Z,45.81
2022-07-27T14:33:33.204Z,46.24
2022-07-27T14:38:42.791Z,45.27
2022-07-27T14:43:41.574Z,42.83
2022-07-27T14:49:05.345Z,41.62
2022-07-27T14:54:04.631Z,41.63
2022-07-27T14:59:06.380Z,41.15
2022-07-27T15:04:06.135Z,40.53
2022-07-27T15:09:07.792Z,40.58
2022-07-27T15:14:07.595Z,40.81
2022-07-27T15:19:08.357Z,40.73
2022-07-27T15:24:08.133Z,40.51
2022-07-27T15:29:14.852Z,40.93
2022-07-27T15:34:16.148Z,41.34
2022-07-27T15:39:16.755Z,42.29
2022-07-27T15:44:23.441Z,41.90
2022-07-27T15:49:33.380Z,41.83
2022-07-27T15:54:42.144Z,42.42
2022-07-27T15:59:47.662Z,42.35
2022-07-27T16:04:48.561Z,42.45
2022-07-27T16:09:53.661Z,41.54
2022-07-27T16:14:52.378Z,40.58
2022-07-27T16:19:54.964Z,41.13
2022-07-27T16:25:04.357Z,41.58
2022-07-27T16:30:04.892Z,41.65
2022-07-27T16:35:10.185Z,41.99
2022-07-27T16:40:14.207Z,41.96
2022-07-27T16:45:15.388Z,41.53
2022-07-27T16:50:14.328Z,40.39
2022-07-27T16:55:17.026Z,39.45
2022-07-27T17:00:16.222Z,38.50
2022-07-27T17:05:22.221Z,38.04
2022-07-27T17:10:26.823Z,37.59
2022-07-27T17:15:25.979Z,37.18
2022-07-27T17:20:36.261Z,36.96
2022-07-27T17:25:43.235Z,36.71
2022-07-27T17:31:01.887Z,36.47
2022-07-27T17:36:12.298Z,36.14
2022-07-27T17:41:13.845Z,35.78
2022-07-27T17:46:15.236Z,35.55
2022-07-27T17:51:16.926Z,35.48
2022-07-27T17:56:18.512Z,35.25
2022-07-27T18:01:17.311Z,35.11
2022-07-27T18:06:15.918Z,34.99
2022-07-27T18:11:15.356Z,35.04
2022-07-27T18:16:14.169Z,33.53
2022-07-27T18:21:16.599Z,31.61
2022-07-27T18:26:46.254Z,31.45
2022-07-27T18:31:51.630Z,31.78
2022-07-27T18:37:11.738Z,32.03
2022-07-27T18:42:10.052Z,31.75
2022-07-27T18:47:19.518Z,32.05
2022-07-27T18:52:19.215Z,31.49
2022-07-27T18:57:20.429Z,31.42
2022-07-27T19:02:28.046Z,30.98
2022-07-27T19:07:31.076Z,30.59
2022-07-27T19:12:34.060Z,30.47
2022-07-27T19:17:36.318Z,30.17
2022-07-27T19:22:34.636Z,30.20
2022-07-27T19:27:38.312Z,30.16
2022-07-27T19:33:09.100Z,29.77
2022-07-27T19:38:23.747Z,29.65
2022-07-27T19:43:32.498Z,29.43
2022-07-27T19:48:36.642Z,29.47
2022-07-27T19:53:40.644Z,29.66
2022-07-27T19:58:45.484Z,29.88
2022-07-27T20:03:54.225Z,29.65
2022-07-27T20:09:44.684Z,29.64
2022-07-27T20:14:48.914Z,29.21
2022-07-27T20:20:55.099Z,29.19
2022-07-27T20:25:54.764Z,28.88
2022-07-27T20:30:56.158Z,29.12
2022-07-27T20:36:00.505Z,28.97
2022-07-27T20:40:59.689Z,28.91
2022-07-27T20:46:08.219Z,29.24
2022-07-27T20:51:14.622Z,28.85
2022-07-27T20:56:12.317Z,28.71
2022-07-27T21:01:10.638Z,28.51
2022-07-27T21:06:10.938Z,28.60
2022-07-27T21:11:10.993Z,28.23
2022-07-27T21:16:12.115Z,28.22
2022-07-27T21:21:12.263Z,28.15
2022-07-27T21:26:12.337Z,27.56
2022-07-27T21:31:13.538Z,27.48
2022-07-27T21:36:12.933Z,27.63
2022-07-27T21:41:14.811Z,27.34
2022-07-27T21:46:15.756Z,27.56
2022-07-27T21:51:18.653Z,27.87
2022-07-27T21:56:16.639Z,27.98
2022-07-27T22:01:18.843Z,27.67
2022-07-27T22:06:23.188Z,27.15
2022-07-27T22:11:23.012Z,26.93
2022-07-27T22:16:21.433Z,27.06
2022-07-27T22:21:32.901Z,27.09
2022-07-27T22:26:34.721Z,27.16
2022-07-27T22:31:33.473Z,26.75
2022-07-27T22:36:35.542Z,27.00
2022-07-27T22:41:36.220Z,26.75
2022-07-27T22:46:35.026Z,26.77
2022-07-27T22:51:49.800Z,26.70
2022-07-27T22:56:54.559Z,26.85
2022-07-27T23:01:52.530Z,27.17
2022-07-27T23:06:51.152Z,26.54
2022-07-27T23:11:52.702Z,26.40
2022-07-27T23:16:51.379Z,26.37
2022-07-27T23:21:53.070Z,26.14
2022-07-27T23:26:55.407Z,26.52
2022-07-27T23:31:53.494Z,26.05
2022-07-27T23:36:54.583Z,26.89
2022-07-27T23:41:55.719Z,26.32
2022-07-27T23:46:55.250Z,26.08
2022-07-27T23:51:56.775Z,26.22
2022-07-27T23:56:57.730Z,26.24
